createdAt,value
2018-07-17T00:00:46.866Z,8.73
2018-07-17T00:03:14.944Z,8.47
2018-07-17T00:05:43.008Z,6.70
2018-07-17T00:08:11.063Z,8.80
2018-07-17T00:10:39.189Z,7.23
2018-07-17T00:13:07.280Z,8.17
2018-07-17T00:15:35.351Z,8.77
2018-07-17T00:18:03.406Z,7.80
2018-07-17T00:20:31.454Z,6.63
2018-07-17T00:22:59.490Z,7.73
2018-07-17T00:25:27.970Z,9.43
2018-07-17T00:27:56.040Z,8.93
2018-07-17T00:30:23.906Z,9.53
2018-07-17T00:32:52.014Z,7.70
2018-07-17T00:35:20.042Z,7.07
2018-07-17T00:37:48.138Z,7.27
2018-07-17T00:40:16.254Z,7.33
2018-07-17T00:42:44.353Z,7.10
2018-07-17T00:45:12.443Z,8.43
2018-07-17T00:47:40.490Z,6.67
2018-07-17T00:50:08.583Z,6.97
2018-07-17T00:52:36.641Z,6.97
2018-07-17T00:55:04.730Z,7.97
2018-07-17T00:57:32.856Z,7.00
2018-07-17T01:00:00.940Z,8.20
2018-07-17T01:02:34.434Z,8.33
2018-07-17T01:05:07.954Z,9.03
2018-07-17T01:07:41.524Z,9.63
2018-07-17T01:10:15.084Z,8.03
2018-07-17T01:12:42.458Z,7.90
2018-07-17T01:15:15.803Z,8.67
2018-07-17T01:17:43.952Z,8.43
2018-07-17T01:20:11.996Z,9.20
2018-07-17T01:22:40.063Z,7.93
2018-07-17T01:25:08.619Z,7.70
2018-07-17T01:27:36.690Z,8.03
2018-07-17T01:30:04.746Z,7.90
2018-07-17T01:32:32.831Z,9.23
2018-07-17T01:35:01.005Z,9.00
2018-07-17T01:37:29.062Z,7.97
2018-07-17T01:39:57.209Z,8.73
2018-07-17T01:42:25.295Z,8.07
2018-07-17T01:44:53.367Z,8.03
2018-07-17T01:47:21.442Z,8.90
2018-07-17T01:49:49.531Z,8.77
2018-07-17T01:52:17.604Z,9.67
2018-07-17T01:54:45.744Z,8.47
2018-07-17T01:57:13.835Z,9.07
2018-07-17T01:59:41.919Z,9.53
2018-07-17T02:02:10.038Z,9.17
2018-07-17T02:04:38.146Z,8.73
2018-07-17T02:07:06.266Z,9.30
2018-07-17T02:09:34.397Z,10.27
2018-07-17T02:12:02.480Z,12.60
2018-07-17T02:14:30.614Z,8.93
2018-07-17T02:16:58.730Z,11.57
2018-07-17T02:19:26.809Z,9.77
2018-07-17T02:21:54.850Z,9.33
2018-07-17T02:24:22.922Z,8.87
2018-07-17T02:26:50.975Z,8.90
2018-07-17T02:29:19.047Z,9.10
2018-07-17T02:31:47.129Z,9.00
2018-07-17T02:34:15.205Z,9.17
2018-07-17T02:36:43.305Z,9.13
2018-07-17T02:39:11.402Z,8.63
2018-07-17T02:41:39.487Z,9.03
2018-07-17T02:44:07.594Z,9.47
2018-07-17T02:46:35.667Z,10.33
2018-07-17T02:49:03.791Z,9.60
2018-07-17T02:51:31.930Z,10.10
2018-07-17T02:54:00.032Z,10.67
2018-07-17T02:56:28.147Z,12.40
2018-07-17T02:58:56.354Z,8.67
2018-07-17T03:01:24.492Z,9.30
2018-07-17T03:03:52.585Z,12.43
2018-07-17T03:06:20.667Z,9.70
2018-07-17T03:08:48.703Z,10.00
2018-07-17T03:11:16.886Z,9.27
2018-07-17T03:13:44.983Z,11.87
2018-07-17T03:16:13.123Z,11.67
2018-07-17T03:18:41.226Z,9.00
2018-07-17T03:21:09.316Z,9.20
2018-07-17T03:23:37.386Z,9.67
2018-07-17T03:26:05.507Z,10.50
2018-07-17T03:28:33.722Z,10.77
2018-07-17T03:31:01.866Z,10.43
2018-07-17T03:33:30.034Z,10.03
2018-07-17T03:35:58.169Z,9.17
2018-07-17T03:38:26.266Z,9.50
2018-07-17T03:40:54.391Z,9.63
2018-07-17T03:43:22.561Z,9.33
2018-07-17T03:45:50.642Z,10.13
2018-07-17T03:48:18.731Z,10.03
2018-07-17T03:50:46.831Z,10.93
2018-07-17T03:53:14.930Z,10.23
2018-07-17T03:55:43.036Z,9.93
2018-07-17T03:58:11.147Z,9.13
2018-07-17T04:00:39.272Z,13.10
2018-07-17T04:03:07.392Z,9.47
2018-07-17T04:05:35.467Z,9.63
2018-07-17T04:08:03.624Z,9.57
2018-07-17T04:10:31.703Z,9.23
2018-07-17T04:12:59.812Z,9.93
2018-07-17T04:15:27.949Z,10.03
2018-07-17T04:17:56.102Z,11.47
2018-07-17T04:20:24.240Z,9.60
2018-07-17T04:22:52.373Z,9.80
2018-07-17T04:25:20.690Z,12.23
2018-07-17T04:27:48.778Z,9.47
2018-07-17T04:30:16.915Z,9.97
2018-07-17T04:32:45.040Z,9.77
2018-07-17T04:35:13.338Z,9.13
2018-07-17T04:37:41.456Z,9.50
2018-07-17T04:40:09.585Z,13.07
2018-07-17T04:42:37.983Z,10.50
2018-07-17T04:45:06.193Z,11.03
2018-07-17T04:47:34.304Z,9.17
2018-07-17T04:50:02.439Z,9.37
2018-07-17T04:52:30.602Z,10.17
2018-07-17T04:54:58.698Z,10.13
2018-07-17T04:57:26.814Z,11.03
2018-07-17T04:59:54.926Z,10.00
2018-07-17T05:02:23.012Z,9.43
2018-07-17T05:04:51.105Z,9.17
2018-07-17T05:07:19.235Z,9.30
2018-07-17T05:09:47.332Z,9.53
2018-07-17T05:12:15.430Z,9.47
2018-07-17T05:14:43.556Z,9.57
2018-07-17T05:17:11.698Z,12.53
2018-07-17T05:19:39.840Z,10.83
2018-07-17T05:22:07.910Z,9.90
2018-07-17T05:24:36.045Z,9.00
2018-07-17T05:27:04.170Z,8.57
2018-07-17T05:29:32.354Z,9.27
2018-07-17T05:32:00.488Z,8.97
2018-07-17T05:34:28.600Z,9.00
2018-07-17T05:36:56.684Z,9.53
2018-07-17T05:39:24.817Z,9.63
2018-07-17T05:41:52.935Z,8.80
2018-07-17T05:44:21.029Z,8.90
2018-07-17T05:46:49.106Z,9.27
2018-07-17T05:49:17.229Z,8.60
2018-07-17T05:51:45.355Z,8.80
2018-07-17T05:54:13.451Z,8.80
2018-07-17T05:56:41.591Z,8.20
2018-07-17T05:59:09.735Z,7.70
2018-07-17T06:01:37.837Z,8.83
2018-07-17T06:04:05.755Z,10.13
2018-07-17T06:06:33.934Z,8.20
2018-07-17T06:09:02.047Z,11.93
2018-07-17T06:11:30.202Z,10.97
2018-07-17T06:13:58.336Z,7.10
2018-07-17T06:16:26.462Z,8.33
2018-07-17T06:18:54.566Z,7.57
2018-07-17T06:21:22.669Z,9.23
2018-07-17T06:23:50.792Z,6.70
2018-07-17T06:26:18.763Z,7.83
2018-07-17T06:28:46.872Z,7.90
2018-07-17T06:31:15.099Z,7.50
2018-07-17T06:33:43.195Z,8.97
2018-07-17T06:36:11.443Z,8.27
2018-07-17T06:38:39.515Z,7.83
2018-07-17T06:41:07.591Z,9.60
2018-07-17T06:43:35.748Z,8.67
2018-07-17T06:46:03.959Z,9.43
2018-07-17T06:48:32.031Z,6.77
2018-07-17T06:51:00.179Z,6.30
2018-07-17T06:53:28.352Z,9.87
2018-07-17T06:55:56.467Z,7.77
2018-07-17T06:58:24.598Z,8.53
2018-07-17T07:00:52.670Z,6.20
2018-07-17T07:03:20.839Z,5.60
2018-07-17T07:05:48.990Z,9.13
2018-07-17T07:08:17.325Z,5.57
2018-07-17T07:10:45.475Z,5.50
2018-07-17T07:13:13.575Z,6.00
2018-07-17T07:15:41.657Z,5.77
2018-07-17T07:18:09.761Z,5.73
2018-07-17T07:20:38.032Z,8.07
2018-07-17T07:23:06.490Z,5.47
2018-07-17T07:25:34.687Z,6.37
2018-07-17T07:28:02.737Z,4.90
2018-07-17T07:30:30.796Z,5.03
2018-07-17T07:32:58.925Z,4.87
2018-07-17T07:35:27.069Z,5.87
2018-07-17T07:37:55.152Z,6.27
2018-07-17T07:40:23.236Z,5.23
2018-07-17T07:42:51.368Z,5.83
2018-07-17T07:45:19.429Z,4.90
2018-07-17T07:47:47.482Z,5.50
2018-07-17T07:50:15.624Z,6.13
2018-07-17T07:52:43.724Z,5.17
2018-07-17T07:55:11.864Z,5.70
2018-07-17T07:57:39.773Z,5.80
2018-07-17T08:00:07.867Z,5.23
2018-07-17T08:02:35.938Z,4.90
2018-07-17T08:05:04.045Z,5.70
2018-07-17T08:07:32.197Z,4.97
2018-07-17T08:10:00.340Z,4.40
2018-07-17T08:12:28.466Z,5.80
2018-07-17T08:14:56.571Z,5.03
2018-07-17T08:17:24.660Z,5.63
2018-07-17T08:19:52.713Z,5.23
2018-07-17T08:22:20.788Z,5.30
2018-07-17T08:24:48.898Z,5.40
2018-07-17T08:27:17.020Z,5.07
2018-07-17T08:29:45.172Z,5.53
2018-07-17T08:32:13.214Z,4.70
2018-07-17T08:34:41.444Z,5.10
2018-07-17T08:37:09.542Z,4.97
2018-07-17T08:39:37.766Z,5.10
2018-07-17T08:42:06.065Z,5.17
2018-07-17T08:44:34.147Z,5.43
2018-07-17T08:47:02.119Z,6.30
2018-07-17T08:49:30.226Z,5.53
2018-07-17T08:51:58.470Z,6.10
2018-07-17T08:54:26.679Z,5.33
2018-07-17T08:56:54.741Z,5.00
2018-07-17T08:59:22.842Z,5.37
2018-07-17T09:01:50.950Z,5.47
2018-07-17T09:04:19.027Z,8.80
2018-07-17T09:06:47.134Z,4.97
2018-07-17T09:09:15.265Z,7.67
2018-07-17T09:11:43.348Z,9.90
2018-07-17T09:14:11.435Z,5.77
2018-07-17T09:16:39.545Z,5.43
2018-07-17T09:19:07.629Z,5.70
2018-07-17T09:21:35.968Z,7.83
2018-07-17T09:24:03.845Z,7.80
2018-07-17T09:26:31.944Z,5.73
2018-07-17T09:29:00.034Z,5.53
2018-07-17T09:31:28.110Z,6.57
2018-07-17T09:33:56.260Z,5.83
2018-07-17T09:36:24.302Z,5.20
2018-07-17T09:38:52.486Z,6.10
2018-07-17T09:41:20.634Z,6.17
2018-07-17T09:43:48.750Z,5.77
2018-07-17T09:46:16.831Z,6.00
2018-07-17T09:48:44.975Z,4.93
2018-07-17T09:51:13.095Z,7.33
2018-07-17T09:53:41.167Z,5.07
2018-07-17T09:56:09.237Z,5.20
2018-07-17T09:58:37.302Z,5.37
2018-07-17T10:01:11.001Z,6.43
2018-07-17T10:03:39.149Z,7.70
2018-07-17T10:06:07.252Z,4.87
2018-07-17T10:08:35.415Z,5.17
2018-07-17T10:11:03.495Z,5.77
2018-07-17T10:13:31.621Z,5.33
2018-07-17T10:15:59.724Z,4.97
2018-07-17T10:18:27.846Z,4.77
2018-07-17T10:20:55.911Z,5.37
2018-07-17T10:23:24.048Z,4.57
2018-07-17T10:25:52.108Z,5.03
2018-07-17T10:28:20.172Z,5.97
2018-07-17T10:30:48.370Z,4.60
2018-07-17T10:33:16.412Z,4.63
2018-07-17T10:35:44.457Z,4.60
2018-07-17T10:38:12.532Z,5.53
2018-07-17T10:40:40.563Z,4.87
2018-07-17T10:43:09.030Z,5.00
2018-07-17T10:45:37.119Z,4.67
2018-07-17T10:48:05.226Z,4.33
2018-07-17T10:50:33.339Z,5.23
2018-07-17T10:53:01.475Z,4.93
2018-07-17T10:55:29.543Z,4.97
2018-07-17T10:57:57.756Z,4.47
2018-07-17T11:00:25.855Z,4.20
2018-07-17T11:02:54.156Z,5.37
2018-07-17T11:05:22.237Z,4.30
2018-07-17T11:07:50.309Z,4.70
2018-07-17T11:10:18.397Z,5.60
2018-07-17T11:12:46.507Z,4.87
2018-07-17T11:15:14.625Z,5.20
2018-07-17T11:17:42.711Z,5.93
2018-07-17T11:20:10.899Z,5.37
2018-07-17T11:22:39.007Z,5.20
2018-07-17T11:25:07.381Z,4.63
2018-07-17T11:27:35.716Z,5.23
2018-07-17T11:30:04.365Z,5.70
2018-07-17T11:32:32.290Z,5.53
2018-07-17T11:35:00.388Z,5.87
2018-07-17T11:37:28.495Z,14.57
2018-07-17T11:39:56.582Z,4.90
2018-07-17T11:42:24.751Z,5.60
2018-07-17T11:44:52.906Z,5.43
2018-07-17T11:47:20.995Z,6.73
2018-07-17T11:49:49.119Z,5.43
2018-07-17T11:52:17.184Z,4.90
2018-07-17T11:54:45.386Z,5.70
2018-07-17T11:57:13.483Z,6.83
2018-07-17T11:59:41.604Z,5.20
2018-07-17T12:02:09.671Z,6.73
2018-07-17T12:04:37.840Z,6.85
2018-07-17T12:07:05.975Z,5.53
2018-07-17T12:09:34.049Z,5.87
2018-07-17T12:12:02.149Z,4.67
2018-07-17T12:14:30.305Z,6.15
2018-07-17T12:16:58.408Z,5.35
2018-07-17T12:19:26.476Z,6.43
2018-07-17T12:21:54.572Z,5.83
2018-07-17T12:24:22.798Z,6.70
2018-07-17T12:26:50.941Z,5.57
2018-07-17T12:29:19.046Z,5.58
2018-07-17T12:31:47.233Z,5.73
2018-07-17T12:34:15.314Z,6.30
2018-07-17T12:36:43.371Z,5.43
2018-07-17T12:39:12.552Z,7.13
2018-07-17T12:41:40.734Z,5.23
2018-07-17T12:44:08.987Z,5.40
2018-07-17T12:46:37.050Z,5.50
2018-07-17T12:49:05.146Z,5.80
2018-07-17T12:51:33.443Z,6.07
2018-07-17T12:54:01.731Z,5.30
2018-07-17T12:56:29.824Z,5.10
2018-07-17T12:58:57.911Z,5.87
2018-07-17T13:01:26.003Z,6.70
2018-07-17T13:03:54.121Z,5.60
2018-07-17T13:06:22.266Z,6.97
2018-07-17T13:08:50.359Z,5.23
2018-07-17T13:11:18.467Z,5.27
2018-07-17T13:13:46.612Z,5.03
2018-07-17T13:16:14.588Z,4.90
2018-07-17T13:18:42.682Z,5.40
2018-07-17T13:21:10.823Z,5.00
2018-07-17T13:23:38.966Z,5.60
2018-07-17T13:26:07.278Z,5.33
2018-07-17T13:28:35.440Z,5.30
2018-07-17T13:31:03.596Z,6.63
2018-07-17T13:33:31.675Z,5.00
2018-07-17T13:35:59.740Z,4.87
2018-07-17T13:38:27.964Z,5.23
2018-07-17T13:40:56.057Z,5.20
2018-07-17T13:43:24.185Z,8.47
2018-07-17T13:45:52.328Z,5.43
2018-07-17T13:48:20.524Z,5.50
2018-07-17T13:50:48.628Z,5.95
2018-07-17T13:53:16.920Z,5.87
2018-07-17T13:55:45.018Z,4.90
2018-07-17T13:58:13.115Z,7.12
2018-07-17T14:00:41.184Z,5.08
2018-07-17T14:03:09.362Z,5.10
2018-07-17T14:05:37.501Z,5.10
2018-07-17T14:08:05.734Z,5.33
2018-07-17T14:10:33.862Z,5.47
2018-07-17T14:13:02.022Z,8.10
2018-07-17T14:15:30.131Z,6.67
2018-07-17T14:17:58.235Z,5.77
2018-07-17T14:20:26.338Z,5.97
2018-07-17T14:22:54.391Z,12.17
2018-07-17T14:25:22.514Z,6.00
2018-07-17T14:27:50.699Z,8.53
2018-07-17T14:30:18.900Z,6.33
2018-07-17T14:32:46.937Z,7.40
2018-07-17T14:35:15.078Z,5.30
2018-07-17T14:37:43.163Z,4.87
2018-07-17T14:40:11.261Z,5.55
2018-07-17T14:42:39.349Z,5.10
2018-07-17T14:45:07.897Z,5.37
2018-07-17T14:47:35.993Z,6.63
2018-07-17T14:50:04.480Z,6.33
2018-07-17T14:52:32.696Z,9.13
2018-07-17T14:55:00.678Z,5.73
2018-07-17T14:57:28.739Z,6.07
2018-07-17T14:59:57.138Z,8.17
2018-07-17T15:02:25.314Z,5.73
2018-07-17T15:04:53.413Z,6.13
2018-07-17T15:07:21.545Z,5.60
2018-07-17T15:09:49.809Z,8.90
2018-07-17T15:12:17.905Z,6.03
2018-07-17T15:14:46.012Z,6.13
2018-07-17T15:17:14.145Z,9.90
2018-07-17T15:19:42.338Z,9.70
2018-07-17T15:22:10.477Z,6.37
2018-07-17T15:24:38.538Z,7.03
2018-07-17T15:27:06.669Z,7.10
2018-07-17T15:29:34.764Z,8.43
2018-07-17T15:32:02.906Z,6.33
2018-07-17T15:34:30.975Z,6.47
2018-07-17T15:36:59.059Z,7.00
2018-07-17T15:39:27.184Z,7.27
2018-07-17T15:41:55.250Z,7.10
2018-07-17T15:44:23.322Z,7.10
2018-07-17T15:46:51.543Z,8.27
2018-07-17T15:49:19.755Z,6.97
2018-07-17T15:51:47.861Z,6.90
2018-07-17T15:54:15.960Z,10.37
2018-07-17T15:56:44.103Z,6.77
2018-07-17T15:59:12.271Z,8.37
2018-07-17T16:01:40.350Z,6.50
2018-07-17T16:04:08.438Z,6.40
2018-07-17T16:06:36.455Z,7.60
2018-07-17T16:09:06.219Z,6.43
2018-07-17T16:11:34.295Z,6.97
2018-07-17T16:14:02.759Z,8.03
2018-07-17T16:16:30.552Z,7.40
2018-07-17T16:18:58.730Z,7.20
2018-07-17T16:21:26.956Z,7.40
2018-07-17T16:23:55.094Z,7.70
2018-07-17T16:26:23.020Z,7.87
2018-07-17T16:28:51.100Z,8.17
2018-07-17T16:31:19.263Z,9.70
2018-07-17T16:33:47.543Z,7.63
2018-07-17T16:36:15.846Z,8.23
2018-07-17T16:38:44.034Z,7.27
2018-07-17T16:41:12.124Z,7.77
2018-07-17T16:43:40.232Z,12.03
2018-07-17T16:46:08.348Z,7.83
2018-07-17T16:48:36.648Z,7.30
2018-07-17T16:51:04.733Z,7.00
2018-07-17T16:53:32.865Z,11.40
2018-07-17T16:56:00.929Z,8.17
2018-07-17T16:58:29.070Z,6.67
2018-07-17T17:00:57.399Z,7.23
2018-07-17T17:03:25.576Z,7.90
2018-07-17T17:05:53.705Z,6.43
2018-07-17T17:08:21.804Z,6.60
2018-07-17T17:10:49.931Z,6.87
2018-07-17T17:13:18.011Z,11.60
2018-07-17T17:15:46.157Z,7.20
2018-07-17T17:18:14.360Z,9.03
2018-07-17T17:20:42.460Z,7.03
2018-07-17T17:23:10.558Z,6.70
2018-07-17T17:25:38.639Z,6.73
2018-07-17T17:28:06.727Z,7.90
2018-07-17T17:30:34.856Z,10.57
2018-07-17T17:33:02.907Z,8.47
2018-07-17T17:35:30.964Z,6.97
2018-07-17T17:37:59.236Z,7.73
2018-07-17T17:40:27.251Z,7.07
2018-07-17T17:42:55.322Z,8.80
2018-07-17T17:45:23.475Z,9.37
2018-07-17T17:47:51.482Z,7.70
2018-07-17T17:50:20.422Z,10.77
2018-07-17T17:52:48.496Z,9.13
2018-07-17T17:55:16.668Z,15.33
2018-07-17T17:57:44.881Z,23.13
2018-07-17T18:00:13.000Z,10.00
2018-07-17T18:02:41.082Z,10.27
2018-07-17T18:05:09.144Z,13.73
2018-07-17T18:07:37.300Z,15.13
2018-07-17T18:10:05.384Z,10.93
2018-07-17T18:12:33.562Z,32.40
2018-07-17T18:15:01.795Z,18.67
2018-07-17T18:17:30.004Z,14.67
2018-07-17T18:19:58.064Z,20.33
2018-07-17T18:22:26.202Z,15.97
2018-07-17T18:24:54.292Z,11.03
2018-07-17T18:27:22.398Z,10.27
2018-07-17T18:29:50.495Z,68.47
2018-07-17T18:32:18.651Z,38.10
2018-07-17T18:34:46.712Z,31.33
2018-07-17T18:37:14.849Z,19.60
2018-07-17T18:39:42.983Z,18.47
2018-07-17T18:42:11.130Z,13.30
2018-07-17T18:44:39.228Z,13.30
2018-07-17T18:47:07.530Z,13.33
2018-07-17T18:49:35.648Z,12.87
2018-07-17T18:52:03.959Z,10.93
2018-07-17T18:54:32.121Z,13.10
2018-07-17T18:57:00.271Z,10.60
2018-07-17T18:59:28.428Z,8.77
2018-07-17T19:01:56.572Z,7.93
2018-07-17T19:04:24.475Z,8.47
2018-07-17T19:06:52.618Z,8.83
2018-07-17T19:09:20.859Z,10.03
2018-07-17T19:11:48.928Z,8.40
2018-07-17T19:14:17.083Z,8.97
2018-07-17T19:16:45.216Z,8.60
2018-07-17T19:19:13.381Z,10.57
2018-07-17T19:21:41.476Z,8.57
2018-07-17T19:24:09.792Z,8.27
2018-07-17T19:26:37.939Z,8.47
2018-07-17T19:29:06.377Z,8.63
2018-07-17T19:31:34.495Z,11.33
2018-07-17T19:34:02.607Z,9.40
2018-07-17T19:36:30.745Z,8.13
2018-07-17T19:38:58.854Z,8.63
2018-07-17T19:41:26.960Z,9.93
2018-07-17T19:43:55.102Z,8.70
2018-07-17T19:46:23.236Z,8.57
2018-07-17T19:48:51.343Z,8.03
2018-07-17T19:51:19.469Z,8.70
2018-07-17T19:53:47.545Z,8.63
2018-07-17T19:56:15.692Z,8.70
2018-07-17T19:58:43.782Z,10.07
2018-07-17T20:01:11.886Z,8.47
2018-07-17T20:03:39.984Z,9.50
2018-07-17T20:06:08.083Z,8.27
2018-07-17T20:08:36.269Z,8.53
2018-07-17T20:11:04.256Z,9.17
2018-07-17T20:13:32.392Z,8.87
2018-07-17T20:16:00.501Z,9.10
2018-07-17T20:18:28.601Z,8.27
2018-07-17T20:20:56.717Z,8.40
2018-07-17T20:23:24.825Z,8.27
2018-07-17T20:25:52.795Z,8.33
2018-07-17T20:28:20.891Z,9.77
2018-07-17T20:30:49.035Z,7.90
2018-07-17T20:33:17.698Z,8.60
2018-07-17T20:35:45.804Z,8.57
2018-07-17T20:38:13.924Z,8.70
2018-07-17T20:40:42.029Z,9.17
2018-07-17T20:43:10.161Z,8.70
2018-07-17T20:45:38.283Z,8.67
2018-07-17T20:48:06.479Z,8.47
2018-07-17T20:50:34.581Z,8.87
2018-07-17T20:53:02.785Z,8.43
2018-07-17T20:55:30.865Z,10.67
2018-07-17T20:57:58.938Z,7.80
2018-07-17T21:00:27.086Z,7.57
2018-07-17T21:02:55.216Z,8.20
2018-07-17T21:05:23.267Z,7.30
2018-07-17T21:07:51.362Z,7.57
2018-07-17T21:10:19.448Z,8.40
2018-07-17T21:12:47.547Z,8.20
2018-07-17T21:15:15.620Z,8.03
2018-07-17T21:17:43.734Z,7.40
2018-07-17T21:20:11.848Z,6.70
2018-07-17T21:22:39.928Z,6.73
2018-07-17T21:25:08.039Z,6.63
2018-07-17T21:27:36.159Z,6.53
2018-07-17T21:30:04.411Z,6.80
2018-07-17T21:32:32.499Z,7.43
2018-07-17T21:35:00.614Z,6.80
2018-07-17T21:37:28.797Z,5.97
2018-07-17T21:39:57.080Z,8.10
2018-07-17T21:42:25.176Z,6.43
2018-07-17T21:44:53.331Z,6.97
2018-07-17T21:47:21.685Z,10.87
2018-07-17T21:49:49.815Z,8.10
2018-07-17T21:52:17.948Z,6.03
2018-07-17T21:54:46.065Z,6.77
2018-07-17T21:57:14.195Z,6.70
2018-07-17T21:59:42.264Z,8.20
2018-07-17T22:02:10.310Z,8.47
2018-07-17T22:04:38.438Z,7.67
2018-07-17T22:07:06.521Z,9.27
2018-07-17T22:09:34.612Z,8.83
2018-07-17T22:12:02.662Z,9.97
2018-07-17T22:14:30.907Z,8.00
2018-07-17T22:16:59.002Z,9.03
2018-07-17T22:19:27.091Z,8.37
2018-07-17T22:21:55.176Z,9.33
2018-07-17T22:24:23.234Z,9.70
2018-07-17T22:26:51.327Z,9.67
2018-07-17T22:29:19.406Z,9.27
2018-07-17T22:31:47.495Z,9.73
2018-07-17T22:34:15.556Z,12.17
2018-07-17T22:36:43.750Z,9.97
2018-07-17T22:39:11.821Z,10.43
2018-07-17T22:41:39.923Z,10.17
2018-07-17T22:44:08.087Z,10.17
2018-07-17T22:46:36.210Z,11.00
2018-07-17T22:49:04.266Z,9.53
2018-07-17T22:51:32.337Z,10.83
2018-07-17T22:54:00.450Z,10.40
2018-07-17T22:56:28.576Z,12.00
2018-07-17T22:58:56.622Z,9.87
2018-07-17T23:01:24.760Z,11.73
2018-07-17T23:03:52.822Z,11.03
2018-07-17T23:06:20.878Z,10.13
2018-07-17T23:08:49.028Z,10.03
2018-07-17T23:11:17.319Z,10.87
2018-07-17T23:13:45.639Z,9.50
2018-07-17T23:16:14.222Z,9.93
2018-07-17T23:18:42.293Z,10.50
2018-07-17T23:21:10.394Z,9.53
2018-07-17T23:23:38.503Z,10.70
2018-07-17T23:26:06.721Z,9.93
2018-07-17T23:28:34.819Z,9.83
2018-07-17T23:31:02.963Z,9.87
2018-07-17T23:33:31.041Z,9.43
2018-07-17T23:35:59.125Z,9.20
2018-07-17T23:38:27.240Z,10.83
2018-07-17T23:40:55.358Z,12.67
2018-07-17T23:43:23.495Z,9.63
2018-07-17T23:45:51.607Z,12.07
2018-07-17T23:48:19.667Z,10.47
2018-07-17T23:50:47.838Z,11.03
2018-07-17T23:53:15.935Z,12.43
2018-07-17T23:55:44.056Z,9.87
2018-07-17T23:58:12.134Z,10.47
